Time;durP1;ratioP1;P1;durP2;ratioP2;P2;SDS_P1;SDS_P2;PMS_P1;PMS_P2;Temp;Humidity;BMP_temperature;BMP_pressure;BME280_temperature;BME280_humidity;BME280_pressure;Samples;Min_cycle;Max_cycle;Signal;HPM_P1;HPM_P2
2024/01/09 00:01:41;;;;;;;;;;;-1.20;97.60;;;;;;5063346;28;19970;-65
2024/01/09 00:04:09;;;;;;;;;;;-1.20;97.60;;;;;;5059516;28;19924;-66
2024/01/09 00:06:35;;;;;;;;;;;-1.20;97.50;;;;;;5060820;28;19928;-66
2024/01/09 00:09:02;;;;;;;;;;;-1.20;97.50;;;;;;5059303;28;20350;-64
2024/01/09 00:11:29;;;;;;;;;;;-1.20;97.50;;;;;;5062015;28;19931;-66
2024/01/09 00:13:55;;;;;;;;;;;-1.20;97.60;;;;;;5060607;28;19932;-65
2024/01/09 00:16:22;;;;;;;;;;;-1.20;97.70;;;;;;5060255;28;19931;-66
2024/01/09 00:18:53;;;;;;;;;;;-1.20;97.70;;;;;;5060187;28;19982;-66
2024/01/09 00:21:21;;;;;;;;;;;-1.30;97.70;;;;;;5064159;28;20002;-67
2024/01/09 00:23:47;;;;;;;;;;;-1.30;97.70;;;;;;5057317;28;25054;-67
2024/01/09 00:26:14;;;;;;;;;;;-1.30;97.70;;;;;;5059495;28;19980;-67
2024/01/09 00:28:40;;;;;;;;;;;-1.30;98.10;;;;;;5063250;28;20169;-67
2024/01/09 00:31:07;;;;;;;;;;;-1.30;97.80;;;;;;5058507;28;20508;-67
2024/01/09 00:33:34;;;;;;;;;;;-1.30;97.70;;;;;;5065451;28;19924;-67
2024/01/09 00:36:02;;;;;;;;;;;-1.30;97.80;;;;;;5057741;28;20394;-67
2024/01/09 00:38:30;;;;;;;;;;;-1.30;97.70;;;;;;5061095;28;20451;-67
2024/01/09 00:40:57;;;;;;;;;;;-1.30;97.70;;;;;;5061215;28;19965;-67
2024/01/09 00:43:23;;;;;;;;;;;-1.40;97.60;;;;;;5062942;28;21588;-67
2024/01/09 00:45:50;;;;;;;;;;;-1.40;97.60;;;;;;5058736;28;25079;-67
2024/01/09 00:48:16;;;;;;;;;;;-1.40;97.60;;;;;;5060929;28;20041;-67
2024/01/09 00:50:43;;;;;;;;;;;-1.40;97.60;;;;;;5065719;28;25070;-67
2024/01/09 00:53:09;;;;;;;;;;;-1.40;97.60;;;;;;5067161;28;19963;-67
2024/01/09 00:55:37;;;;;;;;;;;-1.40;97.60;;;;;;5062334;28;25145;-68
2024/01/09 00:58:04;;;;;;;;;;;-1.40;97.60;;;;;;5066455;28;20057;-67
2024/01/09 01:00:30;;;;;;;;;;;-1.40;97.60;;;;;;5063932;28;25081;-67
2024/01/09 01:02:57;;;;;;;;;;;-1.50;97.60;;;;;;5065742;28;19999;-67
2024/01/09 01:05:23;;;;;;;;;;;-1.40;97.80;;;;;;5064852;28;25078;-67
2024/01/09 01:07:50;;;;;;;;;;;-1.50;97.80;;;;;;5063075;28;19983;-67
2024/01/09 01:10:16;;;;;;;;;;;-1.50;97.80;;;;;;5062224;28;20045;-67
2024/01/09 01:12:44;;;;;;;;;;;-1.50;97.70;;;;;;5066366;28;19924;-65
2024/01/09 01:15:11;;;;;;;;;;;-1.50;97.60;;;;;;5061721;28;19936;-66
2024/01/09 01:17:37;;;;;;;;;;;-1.50;97.70;;;;;;5063989;28;19990;-67
2024/01/09 01:20:04;;;;;;;;;;;-1.50;97.70;;;;;;5064086;28;20182;-67
2024/01/09 01:22:31;;;;;;;;;;;-1.50;97.70;;;;;;5064988;28;25153;-67
2024/01/09 01:24:57;;;;;;;;;;;-1.50;97.70;;;;;;5064812;28;21156;-67
2024/01/09 01:27:24;;;;;;;;;;;-1.60;97.70;;;;;;5063796;28;20185;-67
2024/01/09 01:29:52;;;;;;;;;;;-1.60;97.70;;;;;;5065699;28;20431;-67
2024/01/09 01:32:18;;;;;;;;;;;-1.60;97.60;;;;;;5064673;28;20180;-67
2024/01/09 01:34:45;;;;;;;;;;;-1.60;97.60;;;;;;5065086;28;20202;-67
2024/01/09 01:37:11;;;;;;;;;;;-1.60;97.70;;;;;;5060107;28;25150;-67
2024/01/09 01:39:38;;;;;;;;;;;-1.60;97.70;;;;;;5062899;28;20032;-67
2024/01/09 01:42:05;;;;;;;;;;;-1.60;97.70;;;;;;5061079;28;25059;-67
2024/01/09 01:44:31;;;;;;;;;;;-1.60;97.80;;;;;;5061913;28;20056;-66
2024/01/09 01:46:59;;;;;;;;;;;-1.60;97.80;;;;;;5060226;28;20131;-66
2024/01/09 01:49:26;;;;;;;;;;;-1.60;97.80;;;;;;5059645;28;25069;-67
2024/01/09 01:51:53;;;;;;;;;;;-1.70;97.80;;;;;;5064067;28;19975;-67
2024/01/09 01:54:20;;;;;;;;;;;-1.70;97.70;;;;;;5066173;28;19923;-67
2024/01/09 01:56:47;;;;;;;;;;;-1.70;97.70;;;;;;5064320;28;20119;-67
2024/01/09 01:59:16;;;;;;;;;;;-1.70;97.60;;;;;;5064328;28;19982;-67
2024/01/09 02:01:43;;;;;;;;;;;-1.70;97.70;;;;;;5064923;28;25136;-67
2024/01/09 02:04:11;;;;;;;;;;;-1.70;97.70;;;;;;5063194;28;19932;-66
2024/01/09 02:06:38;;;;;;;;;;;-1.70;97.70;;;;;;5065067;28;20123;-67
2024/01/09 02:09:05;;;;;;;;;;;-1.80;97.50;;;;;;5065025;28;20035;-67
2024/01/09 02:11:31;;;;;;;;;;;-1.70;97.80;;;;;;5066867;28;20811;-67
2024/01/09 02:13:58;;;;;;;;;;;-1.80;97.40;;;;;;5063957;28;20103;-67
2024/01/09 02:16:25;;;;;;;;;;;-1.80;97.40;;;;;;5065811;28;25131;-67
2024/01/09 02:18:51;;;;;;;;;;;-1.80;97.40;;;;;;5065461;28;19983;-67
2024/01/09 02:21:19;;;;;;;;;;;-1.80;97.40;;;;;;5066243;28;25119;-67
2024/01/09 02:23:48;;;;;;;;;;;-1.80;97.40;;;;;;5062992;28;20021;-67
2024/01/09 02:26:16;;;;;;;;;;;-1.90;97.30;;;;;;5062878;28;20216;-67
2024/01/09 02:28:46;;;;;;;;;;;-1.80;97.40;;;;;;5065265;28;19931;-67
2024/01/09 02:31:14;;;;;;;;;;;-1.90;97.30;;;;;;5060699;28;20640;-67
2024/01/09 02:33:41;;;;;;;;;;;-1.90;97.30;;;;;;5063459;28;20817;-67
2024/01/09 02:36:07;;;;;;;;;;;-1.90;97.30;;;;;;5059360;28;25076;-67
2024/01/09 02:38:34;;;;;;;;;;;-1.90;97.40;;;;;;5060658;28;20024;-67
2024/01/09 02:41:00;;;;;;;;;;;-1.90;97.40;;;;;;5062623;28;20112;-67
2024/01/09 02:43:27;;;;;;;;;;;-1.90;97.50;;;;;;5063594;28;20203;-66
2024/01/09 02:45:53;;;;;;;;;;;-1.90;97.40;;;;;;5061156;28;19932;-67
2024/01/09 02:48:21;;;;;;;;;;;-1.90;97.40;;;;;;5058539;28;19929;-67
2024/01/09 02:50:48;;;;;;;;;;;-2.00;97.40;;;;;;5061791;28;25062;-66
2024/01/09 02:53:14;;;;;;;;;;;-1.90;97.40;;;;;;5061255;28;20372;-67
2024/01/09 02:55:41;;;;;;;;;;;-2.00;97.40;;;;;;5060891;28;19990;-67
2024/01/09 02:58:07;;;;;;;;;;;-2.00;97.50;;;;;;5062864;28;19978;-67
2024/01/09 03:00:34;;;;;;;;;;;-2.00;97.40;;;;;;5059618;28;20466;-67
2024/01/09 03:03:00;;;;;;;;;;;-2.00;97.20;;;;;;5068189;28;19985;-66
2024/01/09 03:05:28;;;;;;;;;;;-2.00;97.20;;;;;;5059786;28;19927;-66
2024/01/09 03:07:55;;;;;;;;;;;-2.00;97.20;;;;;;5065826;28;20294;-67
2024/01/09 03:10:21;;;;;;;;;;;-2.00;97.20;;;;;;5062962;28;19982;-66
2024/01/09 03:12:48;;;;;;;;;;;-2.00;97.20;;;;;;5063081;28;20607;-67
2024/01/09 03:15:14;;;;;;;;;;;-2.00;97.20;;;;;;5060610;28;19975;-66
2024/01/09 03:17:41;;;;;;;;;;;-2.00;97.20;;;;;;5064352;28;20148;-67
2024/01/09 03:20:09;;;;;;;;;;;-2.00;97.30;;;;;;5063006;28;19985;-67
2024/01/09 03:22:36;;;;;;;;;;;-2.10;97.30;;;;;;5058115;28;19979;-66
2024/01/09 03:25:03;;;;;;;;;;;-2.10;97.40;;;;;;5059013;28;19986;-66
2024/01/09 03:39:46;;;;;;;;;;;-2.10;97.40;;;;;;5046302;28;19954;-67
2024/01/09 03:42:13;;;;;;;;;;;-2.10;97.40;;;;;;5064068;28;19924;-67
2024/01/09 03:44:39;;;;;;;;;;;-2.20;97.40;;;;;;5059159;28;20103;-67
2024/01/09 03:47:06;;;;;;;;;;;-2.20;97.30;;;;;;5056770;28;19928;-67
2024/01/09 03:49:32;;;;;;;;;;;-2.20;97.30;;;;;;5058740;28;19957;-66
2024/01/09 03:51:59;;;;;;;;;;;-2.20;97.20;;;;;;5062460;28;19924;-67
2024/01/09 03:54:25;;;;;;;;;;;-2.20;97.20;;;;;;5061206;28;20016;-67
2024/01/09 03:56:53;;;;;;;;;;;-2.20;97.20;;;;;;5056727;28;19955;-66
2024/01/09 03:59:20;;;;;;;;;;;-2.20;97.20;;;;;;5061801;28;19977;-67
2024/01/09 04:01:46;;;;;;;;;;;-2.20;97.20;;;;;;5062873;28;20656;-67
2024/01/09 04:04:13;;;;;;;;;;;-2.20;97.30;;;;;;5061611;28;19924;-67
2024/01/09 04:06:43;;;;;;;;;;;-2.20;97.30;;;;;;5057689;28;19925;-67
2024/01/09 04:09:10;;;;;;;;;;;-2.20;97.30;;;;;;5058883;28;19921;-67
2024/01/09 04:11:41;;;;;;;;;;;-2.20;97.30;;;;;;5062973;28;20582;-67
2024/01/09 04:14:09;;;;;;;;;;;-2.20;97.40;;;;;;5063898;28;20360;-67
2024/01/09 04:16:35;;;;;;;;;;;-2.30;97.40;;;;;;5058132;28;19928;-67
2024/01/09 04:19:02;;;;;;;;;;;-2.20;97.40;;;;;;5061479;28;20520;-67
2024/01/09 04:21:28;;;;;;;;;;;-2.30;97.40;;;;;;5060771;28;19985;-67
2024/01/09 04:23:55;;;;;;;;;;;-2.30;97.50;;;;;;5059226;28;19928;-67
2024/01/09 04:26:21;;;;;;;;;;;-2.30;97.50;;;;;;5056791;28;19970;-67
2024/01/09 04:28:48;;;;;;;;;;;-2.30;97.40;;;;;;5065213;28;19981;-67
2024/01/09 04:31:16;;;;;;;;;;;-2.30;97.40;;;;;;5038737;28;19924;-66
2024/01/09 04:33:42;;;;;;;;;;;-2.30;97.40;;;;;;5037655;28;19928;-67
2024/01/09 04:36:14;;;;;;;;;;;-2.30;97.50;;;;;;5038049;28;19986;-66
2024/01/09 04:38:41;;;;;;;;;;;-2.30;97.50;;;;;;5039205;28;19954;-66
2024/01/09 04:41:07;;;;;;;;;;;-2.30;97.40;;;;;;5038991;28;19934;-67
2024/01/09 04:43:34;;;;;;;;;;;-2.30;97.30;;;;;;5036851;28;20639;-67
2024/01/09 04:46:00;;;;;;;;;;;-2.40;97.20;;;;;;5037208;28;20142;-66
2024/01/09 04:48:28;;;;;;;;;;;-2.40;97.20;;;;;;5038022;28;20346;-67
2024/01/09 04:50:55;;;;;;;;;;;-2.40;97.30;;;;;;5038107;28;25089;-67
2024/01/09 04:53:21;;;;;;;;;;;-2.40;97.20;;;;;;5036797;28;20069;-66
2024/01/09 04:55:48;;;;;;;;;;;-2.40;97.10;;;;;;5037107;28;25061;-67
2024/01/09 04:58:14;;;;;;;;;;;-2.40;97.00;;;;;;5039800;28;19989;-68
2024/01/09 05:00:41;;;;;;;;;;;-2.40;97.00;;;;;;5037368;28;25171;-67
2024/01/09 05:03:07;;;;;;;;;;;-2.40;97.00;;;;;;5037039;28;19933;-65
2024/01/09 05:05:35;;;;;;;;;;;-2.40;97.00;;;;;;5035562;28;20640;-66
2024/01/09 05:08:02;;;;;;;;;;;-2.40;97.00;;;;;;5037388;28;19968;-67
2024/01/09 05:10:30;;;;;;;;;;;-2.40;96.90;;;;;;5038125;28;19932;-67
2024/01/09 05:12:57;;;;;;;;;;;-2.40;97.00;;;;;;5040126;28;19967;-67
2024/01/09 05:15:23;;;;;;;;;;;-2.40;97.00;;;;;;5034476;28;19939;-66
2024/01/09 05:17:50;;;;;;;;;;;-2.50;97.00;;;;;;5038196;28;20523;-67
2024/01/09 05:20:16;;;;;;;;;;;-2.50;97.10;;;;;;5038515;28;19936;-66
2024/01/09 05:22:44;;;;;;;;;;;-2.50;97.20;;;;;;5037255;28;19932;-66
2024/01/09 05:25:11;;;;;;;;;;;-2.50;97.20;;;;;;5038929;28;19930;-66
2024/01/09 05:27:37;;;;;;;;;;;-2.50;97.20;;;;;;5038033;28;20658;-67
2024/01/09 05:30:04;;;;;;;;;;;-2.50;97.10;;;;;;5033867;28;19936;-67
2024/01/09 05:32:31;;;;;;;;;;;-2.50;97.10;;;;;;5041137;28;19932;-66
2024/01/09 05:34:57;;;;;;;;;;;-2.50;97.10;;;;;;5041742;28;19947;-67
2024/01/09 05:37:24;;;;;;;;;;;-2.50;97.00;;;;;;5043261;28;19932;-66
2024/01/09 05:39:51;;;;;;;;;;;-2.50;97.00;;;;;;5058488;28;19928;-67
2024/01/09 05:42:18;;;;;;;;;;;-2.50;96.90;;;;;;5066479;28;20340;-67
2024/01/09 05:44:44;;;;;;;;;;;-2.50;96.90;;;;;;5055167;28;19982;-66
2024/01/09 05:47:11;;;;;;;;;;;-2.60;96.90;;;;;;5061130;28;19937;-67
2024/01/09 05:49:38;;;;;;;;;;;-2.50;97.00;;;;;;5060483;28;20460;-67
2024/01/09 05:52:04;;;;;;;;;;;-2.60;97.00;;;;;;5065269;28;19928;-66
2024/01/09 05:54:31;;;;;;;;;;;-2.60;96.90;;;;;;5062823;28;19932;-66
2024/01/09 05:56:59;;;;;;;;;;;-2.60;96.90;;;;;;5057851;28;19941;-67
2024/01/09 05:59:25;;;;;;;;;;;-2.60;96.90;;;;;;5062484;28;19928;-66
2024/01/09 06:01:52;;;;;;;;;;;-2.60;96.90;;;;;;5063419;28;19960;-67
2024/01/09 06:04:18;;;;;;;;;;;-2.60;96.80;;;;;;5061770;28;19997;-66
2024/01/09 06:06:45;;;;;;;;;;;-2.60;96.80;;;;;;5062196;28;20653;-67
2024/01/09 06:09:11;;;;;;;;;;;-2.60;96.80;;;;;;5065567;28;20011;-67
2024/01/09 06:11:38;;;;;;;;;;;-2.60;96.90;;;;;;5062240;28;19938;-67
2024/01/09 06:14:06;;;;;;;;;;;-2.60;96.90;;;;;;5062509;28;20336;-67
2024/01/09 06:16:32;;;;;;;;;;;-2.70;96.90;;;;;;5060345;28;19935;-67
2024/01/09 06:18:59;;;;;;;;;;;-2.70;96.80;;;;;;5062872;28;19928;-67
2024/01/09 06:21:25;;;;;;;;;;;-2.60;96.80;;;;;;5062276;28;20332;-67
2024/01/09 06:23:52;;;;;;;;;;;-2.70;96.80;;;;;;5059551;28;19936;-67
2024/01/09 06:26:18;;;;;;;;;;;-2.70;96.80;;;;;;5060871;28;20983;-67
2024/01/09 06:28:45;;;;;;;;;;;-2.70;96.80;;;;;;5061609;28;19928;-67
2024/01/09 06:31:13;;;;;;;;;;;-2.70;96.80;;;;;;5061526;28;19978;-67
2024/01/09 06:33:40;;;;;;;;;;;-2.70;96.90;;;;;;5061887;28;19936;-67
2024/01/09 06:36:07;;;;;;;;;;;-2.70;96.90;;;;;;5062663;28;19979;-67
2024/01/09 06:38:33;;;;;;;;;;;-2.70;96.90;;;;;;5058496;28;20269;-67
2024/01/09 06:41:00;;;;;;;;;;;-2.70;97.00;;;;;;5061219;28;19940;-67
2024/01/09 06:43:26;;;;;;;;;;;-2.70;97.00;;;;;;5062084;28;19959;-67
2024/01/09 06:45:53;;;;;;;;;;;-2.70;97.00;;;;;;5060695;28;19932;-67
2024/01/09 06:48:20;;;;;;;;;;;-2.70;97.10;;;;;;5059026;28;20673;-67
2024/01/09 06:50:47;;;;;;;;;;;-2.70;97.10;;;;;;5060864;28;19998;-67
2024/01/09 06:53:13;;;;;;;;;;;-2.70;97.10;;;;;;5066037;28;20016;-67
2024/01/09 06:55:40;;;;;;;;;;;-2.70;97.10;;;;;;5058217;28;20456;-66
2024/01/09 06:58:07;;;;;;;;;;;-2.70;97.00;;;;;;5061931;28;20433;-68
2024/01/09 07:00:34;;;;;;;;;;;-2.80;96.70;;;;;;5064599;28;19984;-66
2024/01/09 07:03:00;;;;;;;;;;;-2.80;94.60;;;;;;5055798;28;19932;-67
2024/01/09 07:05:28;;;;;;;;;;;-2.90;94.60;;;;;;5058591;28;20837;-65
2024/01/09 07:07:55;;;;;;;;;;;-2.90;94.70;;;;;;5057606;28;19924;-66
2024/01/09 07:10:21;;;;;;;;;;;-2.90;94.80;;;;;;5063467;28;19928;-66
2024/01/09 07:12:48;;;;;;;;;;;-2.80;95.00;;;;;;5062045;28;19978;-67
2024/01/09 07:15:14;;;;;;;;;;;-2.80;95.10;;;;;;5064496;28;20004;-67
2024/01/09 07:17:41;;;;;;;;;;;-2.90;95.20;;;;;;5061002;28;20047;-67
2024/01/09 07:20:08;;;;;;;;;;;-2.90;95.20;;;;;;5059317;28;19928;-67
2024/01/09 07:22:36;;;;;;;;;;;-2.80;95.30;;;;;;5058021;28;20018;-65
2024/01/09 07:25:03;;;;;;;;;;;-2.80;95.40;;;;;;5061939;28;19928;-67
2024/01/09 07:27:29;;;;;;;;;;;-2.80;95.40;;;;;;5065380;28;19928;-66
2024/01/09 07:29:56;;;;;;;;;;;-2.80;95.50;;;;;;5062157;28;19933;-67
2024/01/09 07:32:22;;;;;;;;;;;-2.80;95.60;;;;;;5061409;28;19967;-71
2024/01/09 07:34:49;;;;;;;;;;;-2.80;95.60;;;;;;5059537;28;19928;-71
2024/01/09 07:37:16;;;;;;;;;;;-2.80;95.70;;;;;;5057051;28;19959;-70
2024/01/09 07:39:44;;;;;;;;;;;-2.80;95.80;;;;;;5059294;28;19940;-71
2024/01/09 07:42:13;;;;;;;;;;;-2.80;95.80;;;;;;5063118;28;19928;-71
2024/01/09 07:44:39;;;;;;;;;;;-2.80;95.80;;;;;;5063890;28;19940;-71
2024/01/09 07:47:07;;;;;;;;;;;-2.80;95.80;;;;;;5059733;28;20394;-71
2024/01/09 07:49:34;;;;;;;;;;;-2.80;95.80;;;;;;5062176;28;19978;-70
2024/01/09 07:52:00;;;;;;;;;;;-2.80;95.90;;;;;;5062853;28;20439;-71
2024/01/09 07:54:27;;;;;;;;;;;-2.80;95.90;;;;;;5057499;28;19962;-71
2024/01/09 07:56:55;;;;;;;;;;;-2.80;95.80;;;;;;5057868;28;20465;-70
2024/01/09 07:59:21;;;;;;;;;;;-2.80;95.80;;;;;;5060391;28;19932;-71
2024/01/09 08:01:51;;;;;;;;;;;-2.80;95.90;;;;;;5062133;28;19998;-71
2024/01/09 08:04:17;;;;;;;;;;;-2.80;95.90;;;;;;5058178;28;19974;-71
2024/01/09 08:06:44;;;;;;;;;;;-2.80;96.00;;;;;;5059383;28;19982;-70
2024/01/09 08:09:13;;;;;;;;;;;-2.80;95.90;;;;;;5060842;28;19982;-71
2024/01/09 08:11:39;;;;;;;;;;;-2.80;95.90;;;;;;5060580;28;19932;-70
2024/01/09 08:14:07;;;;;;;;;;;-2.80;95.90;;;;;;5064153;28;19982;-71
2024/01/09 08:16:33;;;;;;;;;;;-2.80;95.90;;;;;;5056973;28;19986;-71
2024/01/09 08:19:00;;;;;;;;;;;-2.80;95.90;;;;;;5060503;28;19985;-70
2024/01/09 08:21:27;;;;;;;;;;;-2.80;95.90;;;;;;5062413;28;20898;-71
2024/01/09 08:23:53;;;;;;;;;;;-2.80;96.20;;;;;;5061277;28;19932;-71
2024/01/09 08:26:20;;;;;;;;;;;-2.80;96.00;;;;;;5060682;28;19969;-70
2024/01/09 08:28:47;;;;;;;;;;;-2.80;95.90;;;;;;5060114;28;19994;-70
2024/01/09 08:31:15;;;;;;;;;;;-2.80;96.00;;;;;;5051336;28;20427;-71
2024/01/09 08:33:41;;;;;;;;;;;-2.80;95.90;;;;;;5059144;28;19932;-70
2024/01/09 08:36:08;;;;;;;;;;;-2.80;95.90;;;;;;5055649;28;19978;-69
2024/01/09 08:38:34;;;;;;;;;;;-2.80;95.90;;;;;;5058253;28;19928;-69
2024/01/09 08:41:02;;;;;;;;;;;-2.80;95.90;;;;;;5059187;28;19936;-71
2024/01/09 08:43:29;;;;;;;;;;;-2.80;95.70;;;;;;5059663;28;19958;-71
2024/01/09 08:45:55;;;;;;;;;;;-2.80;96.00;;;;;;5056582;28;20766;-71
2024/01/09 08:48:23;;;;;;;;;;;-2.80;95.90;;;;;;5056065;28;19939;-70
2024/01/09 08:50:50;;;;;;;;;;;-2.80;95.90;;;;;;5057065;28;19982;-70
2024/01/09 08:53:16;;;;;;;;;;;-2.80;95.90;;;;;;5058376;28;19940;-70
2024/01/09 08:55:43;;;;;;;;;;;-2.80;95.80;;;;;;5056878;28;19940;-70
2024/01/09 08:58:09;;;;;;;;;;;-2.80;95.70;;;;;;5061373;28;19933;-69
2024/01/09 09:00:36;;;;;;;;;;;-2.80;95.60;;;;;;5060080;28;21129;-70
2024/01/09 09:03:02;;;;;;;;;;;-2.80;95.60;;;;;;5059522;28;19928;-70
2024/01/09 09:05:30;;;;;;;;;;;-2.80;95.60;;;;;;5054250;28;19936;-70
2024/01/09 09:07:57;;;;;;;;;;;-2.80;95.80;;;;;;5058518;28;20421;-70
2024/01/09 09:10:23;;;;;;;;;;;-2.80;95.30;;;;;;5060908;28;19932;-70
2024/01/09 09:12:50;;;;;;;;;;;-2.80;95.30;;;;;;5061881;28;20453;-71
2024/01/09 09:15:16;;;;;;;;;;;-2.80;95.40;;;;;;5061607;28;19933;-71
2024/01/09 09:17:43;;;;;;;;;;;-2.50;95.40;;;;;;5062888;28;19932;-70
2024/01/09 09:20:11;;;;;;;;;;;-2.80;95.30;;;;;;5061705;28;19932;-70
2024/01/09 09:22:39;;;;;;;;;;;-2.80;95.30;;;;;;5062388;28;19933;-70
2024/01/09 09:25:07;;;;;;;;;;;-2.80;95.30;;;;;;5063497;28;19975;-70
2024/01/09 09:27:34;;;;;;;;;;;-2.80;95.20;;;;;;5065625;28;19946;-70
2024/01/09 09:30:01;;;;;;;;;;;-2.80;95.20;;;;;;5063391;28;19958;-69
2024/01/09 09:32:28;;;;;;;;;;;-2.80;95.10;;;;;;5064897;28;19935;-71
2024/01/09 09:34:54;;;;;;;;;;;-2.80;95.00;;;;;;5063740;28;20001;-71
2024/01/09 09:37:21;;;;;;;;;;;-2.80;95.00;;;;;;5064634;28;20622;-70
2024/01/09 09:39:49;;;;;;;;;;;-2.80;95.10;;;;;;5063004;28;19936;-70
2024/01/09 09:42:16;;;;;;;;;;;-2.80;95.10;;;;;;5066887;28;19978;-70
2024/01/09 09:44:43;;;;;;;;;;;-2.80;94.80;;;;;;5063931;28;19932;-70
2024/01/09 09:47:10;;;;;;;;;;;-2.90;95.00;;;;;;5066257;28;20599;-70
2024/01/09 09:49:37;;;;;;;;;;;-2.80;95.00;;;;;;5062120;28;19928;-70
2024/01/09 09:52:04;;;;;;;;;;;-2.80;95.00;;;;;;5069389;28;19924;-70
2024/01/09 09:54:31;;;;;;;;;;;-2.80;94.70;;;;;;5059667;28;19958;-71
2024/01/09 09:56:59;;;;;;;;;;;-2.80;95.00;;;;;;5066521;28;20477;-70
2024/01/09 09:59:25;;;;;;;;;;;-2.70;95.00;;;;;;5062569;28;19932;-71
2024/01/09 10:01:52;;;;;;;;;;;-2.80;95.00;;;;;;5067310;28;20037;-70
2024/01/09 10:04:26;;;;;;;;;;;-2.70;94.90;;;;;;5064576;28;19935;-69
2024/01/09 10:06:55;;;;;;;;;;;-2.70;95.10;;;;;;5060578;28;19931;-70
2024/01/09 10:09:22;;;;;;;;;;;-2.70;95.00;;;;;;5064017;28;19935;-71
2024/01/09 10:11:50;;;;;;;;;;;-2.70;94.90;;;;;;5064314;28;19928;-70
2024/01/09 10:14:18;;;;;;;;;;;-2.70;94.60;;;;;;5065145;28;19929;-70
2024/01/09 10:16:51;;;;;;;;;;;-2.70;94.90;;;;;;5062120;28;19929;-70
2024/01/09 10:19:18;;;;;;;;;;;-2.70;94.90;;;;;;5057683;28;19967;-67
2024/01/09 10:21:44;;;;;;;;;;;-2.70;94.80;;;;;;5060202;28;20329;-66
2024/01/09 10:24:11;;;;;;;;;;;-2.60;94.60;;;;;;5060995;28;19932;-67
2024/01/09 10:26:37;;;;;;;;;;;-2.60;94.90;;;;;;5061522;28;19932;-66
2024/01/09 10:29:04;;;;;;;;;;;-2.60;94.80;;;;;;5063116;28;19933;-67
2024/01/09 10:31:32;;;;;;;;;;;-2.60;94.90;;;;;;5063189;28;20532;-66
2024/01/09 10:33:59;;;;;;;;;;;-2.60;94.50;;;;;;5059812;28;19932;-75
2024/01/09 10:36:25;;;;;;;;;;;-2.60;94.80;;;;;;5057870;28;19939;-75
2024/01/09 10:38:52;;;;;;;;;;;-2.60;94.40;;;;;;5051034;28;19933;-76
2024/01/09 10:41:20;;;;;;;;;;;-2.60;94.40;;;;;;5056405;28;19928;-74
2024/01/09 10:43:49;;;;;;;;;;;-2.50;94.50;;;;;;5057671;28;20378;-73
2024/01/09 10:46:15;;;;;;;;;;;-2.60;94.70;;;;;;5056012;28;19929;-73
2024/01/09 10:48:44;;;;;;;;;;;-1.50;95.00;;;;;;5059462;28;19962;-73
2024/01/09 10:51:11;;;;;;;;;;;-2.50;94.70;;;;;;5062831;28;19935;-73
2024/01/09 10:53:39;;;;;;;;;;;-2.50;94.40;;;;;;5059017;28;19985;-74
2024/01/09 10:56:06;;;;;;;;;;;-2.50;94.70;;;;;;5056619;28;19941;-74
2024/01/09 10:58:33;;;;;;;;;;;;;;;;;;5059107;28;19932;-74
2024/01/09 11:01:00;;;;;;;;;;;-2.40;94.50;;;;;;5059189;28;19932;-74
2024/01/09 11:03:26;;;;;;;;;;;-1.70;94.70;;;;;;5059566;28;19929;-73
2024/01/09 11:05:59;;;;;;;;;;;-2.40;94.80;;;;;;5056955;28;19932;-74
2024/01/09 11:08:26;;;;;;;;;;;-2.30;94.70;;;;;;5058251;28;20305;-74
2024/01/09 11:10:54;;;;;;;;;;;-2.30;94.70;;;;;;5060964;28;20500;-74
2024/01/09 11:13:23;;;;;;;;;;;-2.20;94.40;;;;;;5060186;28;20611;-74
2024/01/09 11:15:54;;;;;;;;;;;-2.20;94.70;;;;;;5055165;28;19928;-74
2024/01/09 11:18:22;;;;;;;;;;;-2.20;94.70;;;;;;5060594;28;20356;-73
2024/01/09 11:20:48;;;;;;;;;;;-2.20;94.70;;;;;;5062290;28;19931;-74
2024/01/09 11:23:36;;;;;;;;;;;-2.20;94.30;;;;;;5055720;28;19932;-73
2024/01/09 11:26:03;;;;;;;;;;;-2.20;94.60;;;;;;5060054;28;19948;-74
2024/01/09 11:28:36;;;;;;;;;;;-2.10;94.60;;;;;;5058173;28;20699;-73
2024/01/09 11:31:05;;;;;;;;;;;-2.10;94.20;;;;;;5057765;28;20026;-73
2024/01/09 11:33:32;;;;;;;;;;;-2.10;94.40;;;;;;5060060;28;19932;-73
2024/01/09 11:36:04;;;;;;;;;;;-2.10;94.30;;;;;;5051470;28;19939;-76
2024/01/09 11:38:31;;;;;;;;;;;-2.10;94.40;;;;;;5059099;28;19928;-76
2024/01/09 11:41:03;;;;;;;;;;;-2.10;94.40;;;;;;5055002;28;19998;-75
2024/01/09 11:43:29;;;;;;;;;;;-2.10;94.10;;;;;;5053460;28;19929;-76
2024/01/09 11:45:56;;;;;;;;;;;-2.10;94.40;;;;;;5056968;28;20010;-76
2024/01/09 11:48:22;;;;;;;;;;;-2.10;94.30;;;;;;5055523;28;20332;-77
2024/01/09 11:50:49;;;;;;;;;;;-2.10;94.30;;;;;;5060219;28;19928;-76
2024/01/09 11:53:16;;;;;;;;;;;-2.10;94.30;;;;;;5060068;28;19933;-76
2024/01/09 11:55:45;;;;;;;;;;;-2.00;94.30;;;;;;5061237;28;19933;-76
2024/01/09 11:58:12;;;;;;;;;;;-2.00;94.30;;;;;;5062035;28;19924;-76
2024/01/09 12:00:38;;;;;;;;;;;-2.00;94.20;;;;;;5059680;28;19936;-76
2024/01/09 12:03:05;;;;;;;;;;;-2.00;94.10;;;;;;5058715;28;19986;-76
2024/01/09 12:05:32;;;;;;;;;;;-2.00;94.00;;;;;;5058797;28;19932;-77
2024/01/09 12:07:58;;;;;;;;;;;-2.00;94.10;;;;;;5061892;28;20421;-76
2024/01/09 12:10:25;;;;;;;;;;;-2.00;94.10;;;;;;5060137;28;20853;-77
2024/01/09 12:13:01;;;;;;;;;;;-2.00;94.10;;;;;;5055404;28;20383;-76
2024/01/09 12:15:27;;;;;;;;;;;-1.90;94.10;;;;;;5059282;28;20457;-77
2024/01/09 12:17:56;;;;;;;;;;;-1.90;94.10;;;;;;5058567;28;19955;-77
2024/01/09 12:20:23;;;;;;;;;;;-1.90;94.10;;;;;;5054450;28;19991;-77
2024/01/09 12:22:50;;;;;;;;;;;-1.90;94.00;;;;;;5052973;28;19954;-77
2024/01/09 12:25:16;;;;;;;;;;;-1.80;93.90;;;;;;5057677;28;19982;-77
2024/01/09 12:27:43;;;;;;;;;;;-1.80;93.90;;;;;;5059526;28;19928;-77
2024/01/09 12:30:13;;;;;;;;;;;-1.70;93.70;;;;;;5056496;28;19977;-76
2024/01/09 12:32:40;;;;;;;;;;;-1.70;93.70;;;;;;5055764;28;19934;-77
2024/01/09 12:35:07;;;;;;;;;;;-1.70;93.60;;;;;;5058681;28;19932;-77
2024/01/09 12:37:34;;;;;;;;;;;-1.70;93.60;;;;;;5057107;28;19970;-77
2024/01/09 12:40:00;;;;;;;;;;;-1.60;93.50;;;;;;5054246;28;19932;-76
2024/01/09 12:42:27;;;;;;;;;;;-1.50;93.60;;;;;;5059420;28;20473;-66
2024/01/09 12:44:54;;;;;;;;;;;-1.50;93.50;;;;;;5059914;28;19929;-66
2024/01/09 12:47:22;;;;;;;;;;;-1.40;93.40;;;;;;5063897;28;19932;-66
2024/01/09 12:49:49;;;;;;;;;;;-1.40;93.30;;;;;;5061680;28;19928;-66
2024/01/09 12:52:17;;;;;;;;;;;-1.40;93.20;;;;;;5065770;28;19982;-67
2024/01/09 12:54:45;;;;;;;;;;;-1.40;93.20;;;;;;5063941;28;19932;-66
2024/01/09 12:57:13;;;;;;;;;;;-1.40;93.00;;;;;;5058575;28;19928;-66
2024/01/09 12:59:39;;;;;;;;;;;-1.30;93.00;;;;;;5066682;28;19967;-66
2024/01/09 13:02:06;;;;;;;;;;;-1.30;92.90;;;;;;5061355;28;19941;-67
2024/01/09 13:04:34;;;;;;;;;;;-1.30;93.00;;;;;;5063153;28;20687;-66
2024/01/09 13:07:01;;;;;;;;;;;-1.30;93.00;;;;;;5062463;28;19933;-66
2024/01/09 13:09:28;;;;;;;;;;;-1.20;93.00;;;;;;5064516;28;19928;-66
2024/01/09 13:11:55;;;;;;;;;;;-1.20;93.10;;;;;;5064023;28;19936;-66
2024/01/09 13:14:21;;;;;;;;;;;-1.20;93.10;;;;;;5063097;28;19977;-66
2024/01/09 13:16:49;;;;;;;;;;;-1.20;93.10;;;;;;5062560;28;19933;-65
2024/01/09 13:19:16;;;;;;;;;;;-1.20;93.10;;;;;;5064177;28;19928;-66
2024/01/09 13:21:43;;;;;;;;;;;-1.10;93.10;;;;;;5063348;28;20669;-67
2024/01/09 13:24:10;;;;;;;;;;;-1.10;92.90;;;;;;5062408;28;19932;-66
2024/01/09 13:26:37;;;;;;;;;;;-1.10;92.80;;;;;;5061850;28;19924;-67
2024/01/09 13:29:04;;;;;;;;;;;-1.10;92.80;;;;;;5063813;28;19929;-69
2024/01/09 13:31:31;;;;;;;;;;;-1.10;92.80;;;;;;5062899;28;20356;-65
2024/01/09 13:33:57;;;;;;;;;;;-1.10;92.80;;;;;;5065189;28;20386;-67
2024/01/09 13:36:24;;;;;;;;;;;-1.10;92.60;;;;;;5066303;28;20731;-84
2024/01/09 13:38:52;;;;;;;;;;;0.30;93.00;;;;;;5063271;28;19928;-82
2024/01/09 13:53:31;;;;;;;;;;;-0.90;92.50;;;;;;5054616;28;19923;-83
2024/01/09 13:55:59;;;;;;;;;;;-0.90;92.30;;;;;;5060107;28;19940;-82
2024/01/09 13:58:25;;;;;;;;;;;-0.80;92.20;;;;;;5066618;28;19935;-83
2024/01/09 14:00:52;;;;;;;;;;;-0.80;92.20;;;;;;5064314;28;19936;-83
2024/01/09 14:03:19;;;;;;;;;;;-0.70;92.10;;;;;;5068122;28;19936;-83
2024/01/09 14:05:45;;;;;;;;;;;-0.70;92.00;;;;;;5059574;28;20023;-82
2024/01/09 14:08:12;;;;;;;;;;;-0.70;91.80;;;;;;5058881;28;19933;-82
2024/01/09 14:10:39;;;;;;;;;;;-0.50;92.00;;;;;;5048409;28;19939;-83
2024/01/09 14:19:17;;;;;;;;;;;-0.40;91.80;;;;;;5052007;28;19989;-83
2024/01/09 14:27:51;;;;;;;;;;;-0.30;91.50;;;;;;5088376;28;20737;-78
2024/01/09 14:36:26;;;;;;;;;;;-0.30;91.60;;;;;;5097051;27;20006;-74
2024/01/09 14:38:53;;;;;;;;;;;-0.30;91.70;;;;;;5092312;28;20308;-77
2024/01/09 14:41:19;;;;;;;;;;;-0.40;91.30;;;;;;5100944;28;19931;-77
2024/01/09 14:43:46;;;;;;;;;;;-0.40;91.60;;;;;;5084952;28;19928;-77
2024/01/09 14:46:13;;;;;;;;;;;-0.40;91.40;;;;;;5099551;28;19928;-78
2024/01/09 14:48:40;;;;;;;;;;;-0.30;86.30;;;;;;5098655;28;19931;-77
2024/01/09 14:51:06;;;;;;;;;;;-0.30;81.90;;;;;;5098615;28;19985;-77
2024/01/09 14:53:35;;;;;;;;;;;-0.30;84.20;;;;;;5093003;28;20261;-77
2024/01/09 14:56:02;;;;;;;;;;;-0.20;86.80;;;;;;5102928;28;19927;-77
2024/01/09 14:58:28;;;;;;;;;;;-0.20;88.20;;;;;;5102372;28;19931;-77
2024/01/09 15:00:58;;;;;;;;;;;-0.10;89.20;;;;;;5102315;28;19998;-76